Clare, Iowa
Current Conditions -  °F | °C
As of 4:35 PM on Monday 20 Oct 2014 (Local Time) from KFOD Reporting Station
Clear Clear  
Wind Chill: 68°   Ceiling: Unl
Heat Index: 68°   Visibility: 10mi
Dew Point: 41°   Wind: 9mph
Humidity: 37%   Direction: 310°NW
Pressure: 30.02"   Gusts: 16mph
Location:  42.59°N, 94.35°W
Report Text: KFOD 202135Z AUTO 31008G14KT 10SM CLR 20/05 A3002 RMK AO1
Loading
Personal Weather Stations






























Interactive Weather Map
Tropical Storm Tracking
New forecast layout! Learn more

10-Day Weather Forecast

Advertisements
Track Severe Weather on mobile